Time;durP1;ratioP1;P1;durP2;ratioP2;P2;SDS_P1;SDS_P2;PMS_P1;PMS_P2;Temp;Humidity;BMP_temperature;BMP_pressure;BME280_temperature;BME280_humidity;BME280_pressure;Samples;Min_cycle;Max_cycle;Signal;HPM_P1;HPM_P2
2022/12/18 00:01:05;;;;;;;;;;;-3.40;99.90;;;;;;5100303;28;19951;-72
2022/12/18 00:03:32;;;;;;;;;;;-3.50;99.90;;;;;;5098342;28;19908;-71
2022/12/18 00:05:58;;;;;;;;;;;-3.50;99.90;;;;;;5104482;28;19958;-79
2022/12/18 00:08:23;;;;;;;;;;;-3.50;99.90;;;;;;5104306;28;19908;-71
2022/12/18 00:10:49;;;;;;;;;;;-3.40;99.90;;;;;;5104149;28;19935;-71
2022/12/18 00:13:14;;;;;;;;;;;-3.40;99.90;;;;;;5103155;28;19921;-72
2022/12/18 00:15:40;;;;;;;;;;;-3.40;99.90;;;;;;5097667;28;19920;-79
2022/12/18 00:18:05;;;;;;;;;;;-3.40;99.90;;;;;;5105394;28;19908;-72
2022/12/18 00:20:31;;;;;;;;;;;-3.40;99.90;;;;;;5101192;27;19916;-71
2022/12/18 00:22:57;;;;;;;;;;;-3.50;99.90;;;;;;5117902;28;20041;-72
2022/12/18 00:25:22;;;;;;;;;;;-3.50;99.90;;;;;;5101449;28;19925;-72
2022/12/18 00:27:48;;;;;;;;;;;-3.50;99.90;;;;;;5109334;28;19951;-72
2022/12/18 00:30:14;;;;;;;;;;;-3.40;99.90;;;;;;5104634;27;19911;-72
2022/12/18 00:32:39;;;;;;;;;;;-3.40;99.90;;;;;;5112374;28;19916;-80
2022/12/18 00:35:05;;;;;;;;;;;-3.50;99.90;;;;;;5108268;28;20316;-72
2022/12/18 00:37:32;;;;;;;;;;;-3.50;99.90;;;;;;5109864;28;19918;-72
2022/12/18 00:39:58;;;;;;;;;;;-3.50;99.90;;;;;;5098066;28;19919;-72
2022/12/18 00:45:09;;;;;;;;;;;-3.70;99.90;;;;;;5096987;28;19922;-72
2022/12/18 00:47:35;;;;;;;;;;;-3.70;99.90;;;;;;5105014;28;19930;-72
2022/12/18 00:50:00;;;;;;;;;;;-3.70;99.90;;;;;;5096844;28;19908;-73
2022/12/18 00:52:26;;;;;;;;;;;-3.60;99.90;;;;;;5103439;28;19908;-79
2022/12/18 00:54:52;;;;;;;;;;;-3.70;99.90;;;;;;5100238;28;19912;-74
2022/12/18 00:57:17;;;;;;;;;;;-3.70;99.90;;;;;;5106025;28;19916;-72
2022/12/18 00:59:43;;;;;;;;;;;-3.70;99.90;;;;;;5100639;28;19916;-71
2022/12/18 01:02:08;;;;;;;;;;;-3.70;99.90;;;;;;5107963;28;19919;-72
2022/12/18 01:04:34;;;;;;;;;;;-3.70;99.90;;;;;;5097722;28;19912;-78
2022/12/18 01:06:59;;;;;;;;;;;-3.80;99.90;;;;;;5095718;28;20198;-80
2022/12/18 01:09:25;;;;;;;;;;;-3.80;99.90;;;;;;5106261;28;19912;-72
2022/12/18 01:11:51;;;;;;;;;;;-3.80;99.90;;;;;;5103776;28;19920;-72
2022/12/18 01:14:16;;;;;;;;;;;-3.80;99.90;;;;;;5099962;28;19912;-72
2022/12/18 01:16:42;;;;;;;;;;;-3.80;99.90;;;;;;5110304;28;19907;-72
2022/12/18 01:19:07;;;;;;;;;;;-3.90;99.90;;;;;;5115030;27;19912;-80
2022/12/18 01:21:33;;;;;;;;;;;-3.90;99.90;;;;;;5110018;28;20046;-72
2022/12/18 01:23:59;;;;;;;;;;;-3.90;99.90;;;;;;5101227;27;19970;-73
2022/12/18 01:26:25;;;;;;;;;;;-3.90;99.90;;;;;;5111500;28;20260;-73
2022/12/18 01:28:50;;;;;;;;;;;-4.00;99.90;;;;;;5100551;27;20324;-72
2022/12/18 01:31:19;;;;;;;;;;;-4.00;99.90;;;;;;5120866;27;19923;-71
2022/12/18 01:33:47;;;;;;;;;;;-4.00;99.90;;;;;;5115580;28;19916;-72
2022/12/18 01:36:17;;;;;;;;;;;-4.00;99.90;;;;;;5102708;28;19927;-73
2022/12/18 01:38:44;;;;;;;;;;;-4.00;99.90;;;;;;5096515;28;19923;-74
2022/12/18 01:41:10;;;;;;;;;;;-4.10;99.90;;;;;;5096771;28;19919;-73
2022/12/18 01:43:42;;;;;;;;;;;-4.10;99.90;;;;;;5097463;28;20226;-73
2022/12/18 01:46:07;;;;;;;;;;;-4.20;99.90;;;;;;5098109;28;19916;-72
2022/12/18 01:48:33;;;;;;;;;;;-4.20;99.90;;;;;;5096780;28;19912;-73
2022/12/18 01:51:00;;;;;;;;;;;-4.20;99.90;;;;;;5098191;28;19912;-72
2022/12/18 01:53:26;;;;;;;;;;;-4.20;99.90;;;;;;5104953;28;19940;-72
2022/12/18 01:55:53;;;;;;;;;;;-4.20;99.90;;;;;;5106436;28;19963;-72
2022/12/18 01:58:19;;;;;;;;;;;-4.20;99.90;;;;;;5115274;28;19938;-80
2022/12/18 02:00:45;;;;;;;;;;;-4.20;99.90;;;;;;5114476;28;20230;-72
2022/12/18 02:03:11;;;;;;;;;;;-4.20;99.90;;;;;;5106633;28;19919;-80
2022/12/18 02:05:36;;;;;;;;;;;-4.20;99.90;;;;;;5112891;28;19911;-72
2022/12/18 02:08:11;;;;;;;;;;;-4.20;99.90;;;;;;5098048;27;20022;-72
2022/12/18 02:10:45;;;;;;;;;;;-4.20;99.90;;;;;;5103657;28;19916;-80
2022/12/18 02:13:11;;;;;;;;;;;-4.20;99.90;;;;;;5106790;28;19912;-72
2022/12/18 02:15:41;;;;;;;;;;;-4.30;99.90;;;;;;5112750;28;19969;-72
2022/12/18 02:18:26;;;;;;;;;;;-4.20;99.90;;;;;;5098021;28;20264;-72
2022/12/18 02:21:00;;;;;;;;;;;-4.20;99.90;;;;;;5103326;27;19920;-75
2022/12/18 02:23:37;;;;;;;;;;;-4.20;99.90;;;;;;5103775;28;19912;-71
2022/12/18 02:26:02;;;;;;;;;;;-4.10;99.90;;;;;;5136962;27;20274;-72
2022/12/18 02:28:30;;;;;;;;;;;-4.20;99.90;;;;;;5109852;28;19990;-72
2022/12/18 02:30:57;;;;;;;;;;;-4.20;99.90;;;;;;5114336;28;19946;-72
2022/12/18 02:33:23;;;;;;;;;;;-4.30;99.90;;;;;;5095403;27;19969;-72
2022/12/18 02:35:50;;;;;;;;;;;-4.30;99.90;;;;;;5105657;27;20257;-72
2022/12/18 02:38:16;;;;;;;;;;;-4.30;99.90;;;;;;5102063;28;19916;-72
2022/12/18 02:40:42;;;;;;;;;;;-4.30;99.90;;;;;;5108013;28;19960;-72
2022/12/18 02:43:09;;;;;;;;;;;-4.30;99.90;;;;;;5096138;27;19911;-72
2022/12/18 02:45:34;;;;;;;;;;;-4.40;99.90;;;;;;5100451;28;19914;-72
2022/12/18 02:48:00;;;;;;;;;;;-4.40;99.90;;;;;;5095300;28;19923;-71
2022/12/18 02:50:30;;;;;;;;;;;-4.40;99.90;;;;;;5097486;28;20227;-72
2022/12/18 02:53:16;;;;;;;;;;;-4.40;99.90;;;;;;5100501;28;19912;-72
2022/12/18 02:56:00;;;;;;;;;;;-4.40;99.90;;;;;;5083651;28;19912;-72
2022/12/18 02:58:55;;;;;;;;;;;-4.40;99.90;;;;;;5104120;28;20533;-72
2022/12/18 03:01:39;;;;;;;;;;;-4.40;99.90;;;;;;5035478;28;20308;-80
2022/12/18 03:04:09;;;;;;;;;;;-4.40;99.90;;;;;;5101846;27;19938;-71
2022/12/18 03:06:43;;;;;;;;;;;-4.40;99.90;;;;;;5108274;28;19911;-72
2022/12/18 03:09:19;;;;;;;;;;;-4.40;99.90;;;;;;5097035;28;19919;-71
2022/12/18 03:14:33;;;;;;;;;;;-4.40;99.90;;;;;;5103948;28;19919;-71
2022/12/18 03:17:01;;;;;;;;;;;-4.40;99.90;;;;;;5100451;28;19959;-76
2022/12/18 03:19:28;;;;;;;;;;;-4.50;99.90;;;;;;5097623;28;19964;-71
2022/12/18 03:21:55;;;;;;;;;;;-4.50;99.90;;;;;;5101819;28;19951;-72
2022/12/18 03:24:21;;;;;;;;;;;-4.50;99.90;;;;;;5093106;28;20349;-80
2022/12/18 03:26:48;;;;;;;;;;;-4.60;99.90;;;;;;5096938;28;20222;-72
2022/12/18 03:29:17;;;;;;;;;;;-4.70;99.90;;;;;;5094844;28;19958;-72
2022/12/18 03:31:47;;;;;;;;;;;-4.80;99.90;;;;;;5098581;28;20006;-74
2022/12/18 03:34:15;;;;;;;;;;;-4.90;99.90;;;;;;5098000;28;19921;-72
2022/12/18 03:36:40;;;;;;;;;;;-4.90;99.90;;;;;;5094425;28;19912;-71
2022/12/18 03:39:06;;;;;;;;;;;-5.00;99.90;;;;;;5099457;28;20301;-80
2022/12/18 03:41:51;;;;;;;;;;;-5.10;99.90;;;;;;5092454;27;19909;-72
2022/12/18 03:44:39;;;;;;;;;;;-5.20;99.90;;;;;;5098120;28;20216;-79
2022/12/18 03:47:21;;;;;;;;;;;-5.20;99.90;;;;;;5098639;28;19927;-75
2022/12/18 03:49:56;;;;;;;;;;;-5.10;99.90;;;;;;5109813;27;20270;-71
2022/12/18 03:52:24;;;;;;;;;;;-5.20;99.90;;;;;;5098476;27;19923;-80
2022/12/18 03:54:51;;;;;;;;;;;-5.20;99.90;;;;;;5105391;28;19971;-80
2022/12/18 03:57:18;;;;;;;;;;;-5.30;99.90;;;;;;5106943;28;20223;-71
2022/12/18 03:59:45;;;;;;;;;;;-5.40;99.90;;;;;;5095148;28;20315;-71
2022/12/18 04:02:10;;;;;;;;;;;-5.40;99.90;;;;;;5108089;28;19911;-72
2022/12/18 04:04:37;;;;;;;;;;;-5.50;99.90;;;;;;5107659;28;20362;-80
2022/12/18 04:07:03;;;;;;;;;;;-5.60;99.90;;;;;;5110335;28;19908;-71
2022/12/18 04:09:30;;;;;;;;;;;-5.60;99.90;;;;;;5102090;28;19908;-71
2022/12/18 04:11:55;;;;;;;;;;;-5.70;99.90;;;;;;5099945;28;19951;-71
2022/12/18 04:14:21;;;;;;;;;;;-5.80;99.90;;;;;;5111697;28;19916;-75
2022/12/18 04:16:46;;;;;;;;;;;-5.80;99.90;;;;;;5106710;28;19912;-74
2022/12/18 04:19:12;;;;;;;;;;;-5.80;99.90;;;;;;5094774;28;19912;-71
2022/12/18 04:21:37;;;;;;;;;;;-5.90;99.90;;;;;;5104140;28;19915;-80
2022/12/18 04:24:03;;;;;;;;;;;-5.90;99.90;;;;;;5098772;28;19909;-72
2022/12/18 04:26:28;;;;;;;;;;;-5.90;99.90;;;;;;5099956;28;19916;-71
2022/12/18 04:28:54;;;;;;;;;;;-5.90;99.90;;;;;;5101227;28;20323;-71
2022/12/18 04:31:19;;;;;;;;;;;-6.00;99.90;;;;;;5098205;28;20276;-73
2022/12/18 04:33:45;;;;;;;;;;;-6.10;99.90;;;;;;5104501;28;19915;-71
2022/12/18 04:36:12;;;;;;;;;;;-6.20;99.90;;;;;;5105133;28;19920;-72
2022/12/18 04:38:37;;;;;;;;;;;-6.20;99.90;;;;;;5111345;28;19912;-72
2022/12/18 04:41:03;;;;;;;;;;;-6.30;99.90;;;;;;5106631;28;20371;-72
2022/12/18 04:43:29;;;;;;;;;;;-6.30;99.90;;;;;;5111839;28;19937;-71
2022/12/18 04:46:00;;;;;;;;;;;-6.30;99.90;;;;;;5111670;28;19968;-71
2022/12/18 04:48:26;;;;;;;;;;;-6.40;99.90;;;;;;5112966;28;19922;-71
2022/12/18 04:50:51;;;;;;;;;;;-6.50;99.90;;;;;;5140112;27;19912;-71
2022/12/18 04:53:17;;;;;;;;;;;-6.50;99.90;;;;;;5113421;27;19912;-71
2022/12/18 04:55:43;;;;;;;;;;;-6.60;99.90;;;;;;5103134;27;19916;-71
2022/12/18 04:58:08;;;;;;;;;;;-6.60;99.90;;;;;;5108740;28;19961;-79
2022/12/18 05:00:34;;;;;;;;;;;-6.60;99.90;;;;;;5111869;28;19916;-72
2022/12/18 05:03:00;;;;;;;;;;;-6.50;99.90;;;;;;5098335;28;19915;-73
2022/12/18 05:05:26;;;;;;;;;;;-6.60;99.90;;;;;;5106411;28;19916;-71
2022/12/18 05:07:52;;;;;;;;;;;-6.60;99.90;;;;;;5112157;28;20248;-72
2022/12/18 05:10:17;;;;;;;;;;;-6.60;99.90;;;;;;5111179;28;19920;-76
2022/12/18 05:12:58;;;;;;;;;;;-6.70;99.90;;;;;;5113877;28;19911;-72
2022/12/18 05:15:30;;;;;;;;;;;-6.70;99.90;;;;;;5114165;28;20255;-72
2022/12/18 05:17:56;;;;;;;;;;;-6.70;99.90;;;;;;5105363;28;19926;-71
2022/12/18 05:20:22;;;;;;;;;;;-6.70;99.90;;;;;;5104999;28;19919;-71
2022/12/18 05:22:48;;;;;;;;;;;-6.70;99.90;;;;;;5103023;28;19916;-71
2022/12/18 05:25:13;;;;;;;;;;;-6.70;99.90;;;;;;5104142;28;19916;-74
2022/12/18 05:27:39;;;;;;;;;;;-6.70;99.90;;;;;;5097947;28;19935;-78
2022/12/18 05:30:05;;;;;;;;;;;-6.80;99.90;;;;;;5108130;28;19935;-72
2022/12/18 05:32:30;;;;;;;;;;;-6.80;99.90;;;;;;5107945;28;19911;-71
2022/12/18 05:34:57;;;;;;;;;;;-6.80;99.90;;;;;;5104630;28;19908;-72
2022/12/18 05:37:22;;;;;;;;;;;-6.70;99.90;;;;;;5105206;28;20222;-71
2022/12/18 05:39:48;;;;;;;;;;;-6.70;99.90;;;;;;5112560;28;19912;-75
2022/12/18 05:42:14;;;;;;;;;;;-6.70;99.90;;;;;;5105421;28;19911;-72
2022/12/18 05:44:39;;;;;;;;;;;-6.80;99.90;;;;;;5142388;27;20630;-71
2022/12/18 05:47:05;;;;;;;;;;;-6.70;99.90;;;;;;5105335;28;19964;-71
2022/12/18 05:49:30;;;;;;;;;;;-6.70;99.90;;;;;;5107634;28;19908;-70
2022/12/18 05:51:56;;;;;;;;;;;-6.70;99.90;;;;;;5101444;28;19919;-71
2022/12/18 05:54:21;;;;;;;;;;;-6.70;99.90;;;;;;5096263;27;20057;-71
2022/12/18 05:56:47;;;;;;;;;;;-6.70;99.90;;;;;;5096274;28;19946;-71
2022/12/18 05:59:12;;;;;;;;;;;-6.70;99.90;;;;;;5100778;28;20005;-75
2022/12/18 06:01:38;;;;;;;;;;;-6.70;99.90;;;;;;5103145;27;19920;-71
2022/12/18 06:04:04;;;;;;;;;;;-6.70;99.90;;;;;;5119430;27;19912;-71
2022/12/18 06:06:29;;;;;;;;;;;-6.80;99.90;;;;;;5109377;28;19915;-79
2022/12/18 06:08:56;;;;;;;;;;;-6.80;99.90;;;;;;5097396;28;19908;-71
2022/12/18 06:11:23;;;;;;;;;;;-6.80;99.90;;;;;;5097593;28;19914;-72
2022/12/18 06:13:52;;;;;;;;;;;-6.80;99.90;;;;;;5106562;28;20534;-71
2022/12/18 06:16:17;;;;;;;;;;;-6.80;99.90;;;;;;5105948;28;19916;-71
2022/12/18 06:18:43;;;;;;;;;;;-6.80;99.90;;;;;;5096981;28;19989;-71
2022/12/18 06:21:08;;;;;;;;;;;-6.90;99.90;;;;;;5095693;27;20089;-72
2022/12/18 06:23:34;;;;;;;;;;;-6.80;99.90;;;;;;5109100;28;19916;-71
2022/12/18 06:26:03;;;;;;;;;;;-6.80;99.90;;;;;;5098023;28;19912;-78
2022/12/18 06:28:28;;;;;;;;;;;-6.80;99.90;;;;;;5102825;28;19973;-71
2022/12/18 06:30:54;;;;;;;;;;;-6.70;99.90;;;;;;5104725;28;20319;-71
2022/12/18 06:33:19;;;;;;;;;;;-6.70;99.90;;;;;;5097714;28;20187;-71
2022/12/18 06:35:45;;;;;;;;;;;-6.70;99.90;;;;;;5098809;28;19916;-72
2022/12/18 06:38:11;;;;;;;;;;;-6.70;99.90;;;;;;5099666;28;19908;-72
2022/12/18 06:40:37;;;;;;;;;;;-6.70;99.90;;;;;;5102017;28;19946;-71
2022/12/18 06:43:03;;;;;;;;;;;-6.70;99.90;;;;;;5095925;28;20310;-71
2022/12/18 06:45:28;;;;;;;;;;;-6.80;99.90;;;;;;5100717;28;19912;-71
2022/12/18 06:47:54;;;;;;;;;;;-6.70;99.90;;;;;;5095319;28;19924;-72
2022/12/18 06:50:20;;;;;;;;;;;-6.70;99.90;;;;;;5100673;28;19994;-71
2022/12/18 06:52:45;;;;;;;;;;;-6.70;99.90;;;;;;5096675;28;19998;-72
2022/12/18 06:55:11;;;;;;;;;;;-6.70;99.90;;;;;;5106621;28;19929;-71
2022/12/18 06:57:37;;;;;;;;;;;-6.70;99.90;;;;;;5094811;28;20230;-71
2022/12/18 07:00:03;;;;;;;;;;;-6.60;99.90;;;;;;5093562;28;19923;-71
2022/12/18 07:02:29;;;;;;;;;;;-6.60;99.90;;;;;;5116617;27;19907;-70
2022/12/18 07:04:54;;;;;;;;;;;-6.60;99.90;;;;;;5092503;27;19916;-70
2022/12/18 07:07:20;;;;;;;;;;;-6.60;99.90;;;;;;5109457;27;19916;-71
2022/12/18 07:09:46;;;;;;;;;;;-6.50;99.90;;;;;;5094856;28;19939;-76
2022/12/18 07:12:11;;;;;;;;;;;-6.60;99.90;;;;;;5094921;28;19908;-71
2022/12/18 07:14:37;;;;;;;;;;;-6.60;99.90;;;;;;5096201;28;20214;-71
2022/12/18 07:17:02;;;;;;;;;;;-6.60;99.90;;;;;;5099196;28;20367;-72
2022/12/18 07:19:29;;;;;;;;;;;-6.60;99.90;;;;;;5106326;28;20299;-71
2022/12/18 07:21:54;;;;;;;;;;;-6.60;99.90;;;;;;5098671;28;20002;-71
2022/12/18 07:24:20;;;;;;;;;;;-6.60;99.90;;;;;;5096840;28;20263;-71
2022/12/18 07:26:45;;;;;;;;;;;-6.60;99.90;;;;;;5106127;28;20214;-80
2022/12/18 07:29:11;;;;;;;;;;;-6.60;99.90;;;;;;5109533;28;19912;-71
2022/12/18 07:31:37;;;;;;;;;;;-6.60;99.90;;;;;;5099519;28;19976;-80
2022/12/18 07:34:02;;;;;;;;;;;-6.60;99.90;;;;;;5105307;28;20007;-71
2022/12/18 07:36:28;;;;;;;;;;;-6.60;99.90;;;;;;5099048;28;19919;-80
2022/12/18 07:38:53;;;;;;;;;;;-6.60;99.90;;;;;;5098435;28;19931;-71
2022/12/18 07:41:19;;;;;;;;;;;-6.60;99.90;;;;;;5100186;28;20221;-71
2022/12/18 07:43:45;;;;;;;;;;;-6.60;99.90;;;;;;5099116;28;19915;-79
2022/12/18 07:46:13;;;;;;;;;;;-6.60;99.90;;;;;;5095827;28;20240;-71
2022/12/18 07:48:39;;;;;;;;;;;-6.70;99.90;;;;;;5095327;28;19912;-71
2022/12/18 07:51:06;;;;;;;;;;;-6.60;99.90;;;;;;5099709;28;20267;-74
2022/12/18 07:53:32;;;;;;;;;;;-6.60;99.90;;;;;;5107299;28;19908;-78
2022/12/18 07:55:58;;;;;;;;;;;-6.60;99.90;;;;;;5107486;28;19917;-72
2022/12/18 07:58:24;;;;;;;;;;;-6.50;99.90;;;;;;5105196;28;20306;-71
2022/12/18 08:00:50;;;;;;;;;;;-6.60;99.90;;;;;;5108295;28;19919;-71
2022/12/18 08:03:15;;;;;;;;;;;-6.50;99.90;;;;;;5109128;28;19912;-71
2022/12/18 08:05:41;;;;;;;;;;;-6.40;99.90;;;;;;5103372;27;19916;-72
2022/12/18 08:08:06;;;;;;;;;;;-6.40;99.90;;;;;;5095206;27;19922;-74
2022/12/18 08:10:32;;;;;;;;;;;-6.30;99.90;;;;;;5100038;28;19908;-77
2022/12/18 08:12:57;;;;;;;;;;;-6.30;99.90;;;;;;5097480;28;19999;-71
2022/12/18 08:15:23;;;;;;;;;;;-6.20;99.90;;;;;;5098138;28;19956;-71
2022/12/18 08:17:48;;;;;;;;;;;-6.10;99.90;;;;;;5099399;28;19916;-78
2022/12/18 08:20:14;;;;;;;;;;;-6.10;99.90;;;;;;5099323;27;19928;-73
2022/12/18 08:22:43;;;;;;;;;;;-6.10;99.90;;;;;;5104327;28;20256;-79
2022/12/18 08:25:09;;;;;;;;;;;-6.10;99.90;;;;;;5106538;28;19935;-71
2022/12/18 08:27:35;;;;;;;;;;;-6.20;99.90;;;;;;5113497;28;19916;-78
2022/12/18 08:30:01;;;;;;;;;;;-6.20;99.90;;;;;;5097156;27;20356;-71
2022/12/18 08:32:27;;;;;;;;;;;-6.20;99.90;;;;;;5108430;27;19912;-71
2022/12/18 08:34:52;;;;;;;;;;;-6.10;99.90;;;;;;5113319;28;19912;-71
2022/12/18 08:37:18;;;;;;;;;;;-6.00;99.90;;;;;;5106994;28;20020;-78
2022/12/18 08:39:43;;;;;;;;;;;-6.00;99.90;;;;;;5106023;27;19962;-72
2022/12/18 08:44:53;;;;;;;;;;;-5.80;99.90;;;;;;5107377;28;20312;-71
2022/12/18 08:47:19;;;;;;;;;;;-5.80;99.90;;;;;;5106604;27;19923;-71
2022/12/18 08:49:44;;;;;;;;;;;-5.70;99.90;;;;;;5112335;27;19955;-70
2022/12/18 08:52:10;;;;;;;;;;;-5.70;99.90;;;;;;5114602;28;19912;-70
2022/12/18 08:54:36;;;;;;;;;;;-5.60;99.90;;;;;;5141803;27;19915;-71
2022/12/18 08:57:02;;;;;;;;;;;-5.50;99.90;;;;;;5113495;28;19912;-71
2022/12/18 08:59:28;;;;;;;;;;;-5.50;99.90;;;;;;5112791;28;19920;-79
2022/12/18 09:01:55;;;;;;;;;;;-5.40;99.90;;;;;;5110403;27;19908;-72
2022/12/18 09:04:20;;;;;;;;;;;-5.30;99.90;;;;;;5111122;27;19907;-71
2022/12/18 09:06:46;;;;;;;;;;;-5.20;99.90;;;;;;5101621;28;19915;-71
2022/12/18 09:09:11;;;;;;;;;;;-5.10;99.90;;;;;;5105555;27;20044;-71
2022/12/18 09:11:37;;;;;;;;;;;-5.00;99.90;;;;;;5111008;28;20313;-70
2022/12/18 09:14:03;;;;;;;;;;;-5.00;99.90;;;;;;5113002;27;19927;-80
2022/12/18 09:16:29;;;;;;;;;;;-4.90;99.90;;;;;;5107732;27;20332;-79
2022/12/18 09:18:59;;;;;;;;;;;-4.80;99.90;;;;;;5104725;27;19973;-79
2022/12/18 09:21:25;;;;;;;;;;;-4.70;99.90;;;;;;5096305;27;20253;-71
2022/12/18 09:23:51;;;;;;;;;;;-4.60;99.90;;;;;;5103325;28;20206;-73
2022/12/18 09:26:16;;;;;;;;;;;-4.60;99.90;;;;;;5099761;28;19919;-71
2022/12/18 09:28:42;;;;;;;;;;;-4.50;99.90;;;;;;5097566;27;20010;-79
2022/12/18 09:31:08;;;;;;;;;;;-4.50;99.90;;;;;;5101547;27;19916;-79
2022/12/18 09:33:35;;;;;;;;;;;-4.40;99.90;;;;;;5115134;27;20248;-71
2022/12/18 09:36:02;;;;;;;;;;;-4.40;99.90;;;;;;5099979;28;20228;-72
2022/12/18 09:38:27;;;;;;;;;;;-4.30;99.90;;;;;;5105458;27;19938;-79
2022/12/18 09:40:56;;;;;;;;;;;-4.30;99.90;;;;;;5096586;28;19965;-76
2022/12/18 09:43:35;;;;;;;;;;;-4.20;99.90;;;;;;5097974;28;19923;-80
2022/12/18 09:46:02;;;;;;;;;;;-4.10;99.90;;;;;;5101403;28;20376;-80
2022/12/18 09:48:30;;;;;;;;;;;-4.00;99.90;;;;;;5103961;28;19919;-72
2022/12/18 09:51:00;;;;;;;;;;;-4.00;99.90;;;;;;5094287;28;19912;-78
2022/12/18 09:53:27;;;;;;;;;;;-3.90;99.90;;;;;;5102581;28;20302;-72
2022/12/18 09:55:54;;;;;;;;;;;-3.80;99.90;;;;;;5099321;27;19916;-78
2022/12/18 09:58:29;;;;;;;;;;;-3.80;99.90;;;;;;5099810;28;19966;-71
2022/12/18 10:00:54;;;;;;;;;;;-3.70;99.90;;;;;;5105921;27;19964;-71
2022/12/18 10:03:20;;;;;;;;;;;-3.70;99.90;;;;;;5098197;28;20002;-79
2022/12/18 10:05:57;;;;;;;;;;;-3.60;99.90;;;;;;5114904;28;19943;-73
2022/12/18 10:08:35;;;;;;;;;;;-3.60;99.90;;;;;;5109331;27;19920;-71
2022/12/18 10:11:15;;;;;;;;;;;-3.50;99.90;;;;;;5105692;27;19923;-80
2022/12/18 10:13:51;;;;;;;;;;;-3.50;99.90;;;;;;5094225;27;19912;-71
2022/12/18 10:16:26;;;;;;;;;;;-3.50;99.90;;;;;;5114219;27;20011;-72
2022/12/18 10:19:20;;;;;;;;;;;-3.40;99.90;;;;;;5099661;27;19920;-71
2022/12/18 10:22:05;;;;;;;;;;;-3.40;99.90;;;;;;5101821;27;20256;-72
2022/12/18 10:24:38;;;;;;;;;;;-3.30;99.90;;;;;;5115111;27;19955;-72
2022/12/18 10:27:15;;;;;;;;;;;-3.20;99.90;;;;;;5116403;27;19922;-72
2022/12/18 10:29:41;;;;;;;;;;;-3.20;99.90;;;;;;5093708;27;19912;-72
2022/12/18 10:32:09;;;;;;;;;;;-3.20;99.90;;;;;;5094788;28;19912;-72
2022/12/18 10:34:34;;;;;;;;;;;-3.10;99.90;;;;;;5116923;27;19918;-72
2022/12/18 10:37:01;;;;;;;;;;;-3.10;99.90;;;;;;5119284;27;19923;-75
2022/12/18 10:39:27;;;;;;;;;;;-3.00;99.90;;;;;;5098186;27;19970;-73
2022/12/18 10:42:08;;;;;;;;;;;-3.00;99.90;;;;;;5099742;27;19920;-81
2022/12/18 10:44:34;;;;;;;;;;;-2.90;99.90;;;;;;5103053;27;19966;-71
2022/12/18 10:47:04;;;;;;;;;;;-2.90;99.90;;;;;;5108165;28;19924;-72
2022/12/18 10:49:32;;;;;;;;;;;-2.90;99.90;;;;;;5108956;28;20659;-80
2022/12/18 10:52:14;;;;;;;;;;;-2.80;99.90;;;;;;5106099;28;19912;-72
2022/12/18 10:54:39;;;;;;;;;;;-2.80;99.90;;;;;;5101807;27;19916;-81
2022/12/18 10:57:37;;;;;;;;;;;-2.80;99.90;;;;;;5107829;27;19969;-73
2022/12/18 11:00:20;;;;;;;;;;;-2.70;99.90;;;;;;5040853;28;19916;-76
2022/12/18 11:02:45;;;;;;;;;;;-2.70;99.90;;;;;;5049622;28;19909;-80
2022/12/18 11:05:31;;;;;;;;;;;-2.60;99.90;;;;;;5023296;28;19913;-73
2022/12/18 11:07:57;;;;;;;;;;;-2.60;99.90;;;;;;5030081;28;20379;-79
2022/12/18 11:10:39;;;;;;;;;;;-2.50;99.90;;;;;;5040183;28;19917;-79
2022/12/18 11:13:24;;;;;;;;;;;-2.50;99.90;;;;;;5019983;28;19957;-72
2022/12/18 11:15:50;;;;;;;;;;;-2.50;99.90;;;;;;5044544;28;20106;-80
2022/12/18 11:18:17;;;;;;;;;;;-2.50;99.90;;;;;;5046988;28;20288;-73
2022/12/18 11:20:49;;;;;;;;;;;-2.40;99.90;;;;;;5046159;28;20016;-72
2022/12/18 11:23:15;;;;;;;;;;;-2.40;99.90;;;;;;5050545;28;20011;-72
2022/12/18 11:25:49;;;;;;;;;;;-2.30;99.90;;;;;;5046237;28;20020;-72
2022/12/18 11:28:27;;;;;;;;;;;-2.30;99.90;;;;;;5031942;28;20243;-73
2022/12/18 11:31:11;;;;;;;;;;;-2.30;99.90;;;;;;5028173;28;19917;-73
2022/12/18 11:33:39;;;;;;;;;;;-2.20;99.90;;;;;;5029548;28;19909;-80
2022/12/18 11:36:07;;;;;;;;;;;-2.10;99.90;;;;;;5089780;28;19916;-74
2022/12/18 11:38:35;;;;;;;;;;;-2.10;99.90;;;;;;5110651;27;19907;-72
2022/12/18 11:41:03;;;;;;;;;;;-2.00;99.90;;;;;;5111661;28;20012;-72
2022/12/18 11:43:38;;;;;;;;;;;-2.00;99.90;;;;;;5105295;28;19915;-73
2022/12/18 11:46:05;;;;;;;;;;;-1.90;99.90;;;;;;5099308;27;19927;-73
2022/12/18 11:48:37;;;;;;;;;;;-1.90;99.90;;;;;;5090707;27;20234;-81
2022/12/18 11:51:05;;;;;;;;;;;-1.90;99.90;;;;;;5107077;28;20046;-75
2022/12/18 11:53:30;;;;;;;;;;;-1.90;99.90;;;;;;5106852;28;19918;-80
2022/12/18 11:56:00;;;;;;;;;;;-1.80;99.90;;;;;;5111590;28;20222;-73
2022/12/18 11:58:41;;;;;;;;;;;-1.80;99.90;;;;;;5113969;28;20325;-80
2022/12/18 12:01:18;;;;;;;;;;;-1.80;99.90;;;;;;5105777;28;19964;-80
2022/12/18 12:03:49;;;;;;;;;;;-1.80;99.90;;;;;;5104914;28;19969;-72
2022/12/18 12:06:22;;;;;;;;;;;-1.80;99.90;;;;;;5111615;28;19916;-72
2022/12/18 12:08:54;;;;;;;;;;;-1.80;99.90;;;;;;5111316;28;19909;-81
2022/12/18 12:11:40;;;;;;;;;;;-1.80;99.90;;;;;;5103468;28;20225;-81
2022/12/18 12:14:05;;;;;;;;;;;-1.80;99.90;;;;;;5101634;28;19908;-80
2022/12/18 12:16:31;;;;;;;;;;;-1.70;99.90;;;;;;5108575;28;19922;-80
2022/12/18 12:18:56;;;;;;;;;;;-1.70;99.90;;;;;;5108734;28;19916;-72
2022/12/18 12:21:25;;;;;;;;;;;-1.60;99.90;;;;;;5106324;28;19908;-80
2022/12/18 12:24:05;;;;;;;;;;;-1.60;99.90;;;;;;5106444;28;19907;-81
2022/12/18 12:26:36;;;;;;;;;;;-1.60;99.90;;;;;;5105176;28;19908;-76
2022/12/18 12:29:20;;;;;;;;;;;-1.50;99.90;;;;;;5109964;28;19915;-81
2022/12/18 12:32:03;;;;;;;;;;;-1.50;99.90;;;;;;5097711;28;19916;-71
2022/12/18 12:34:32;;;;;;;;;;;-1.50;99.90;;;;;;5111390;28;19915;-79
2022/12/18 12:37:10;;;;;;;;;;;-1.40;99.90;;;;;;5101495;28;19920;-72
2022/12/18 12:39:37;;;;;;;;;;;-1.40;99.90;;;;;;5100089;28;19916;-72
2022/12/18 12:44:55;;;;;;;;;;;-1.40;99.90;;;;;;5107210;28;19958;-72
2022/12/18 12:47:25;;;;;;;;;;;-1.40;99.90;;;;;;5033850;27;1909576;-72
2022/12/18 12:49:51;;;;;;;;;;;-1.30;99.90;;;;;;5114356;27;20292;-81
2022/12/18 12:52:21;;;;;;;;;;;-1.30;99.90;;;;;;5105997;27;19916;-79
2022/12/18 12:54:47;;;;;;;;;;;-1.30;99.90;;;;;;5093260;27;19998;-81
2022/12/18 12:57:15;;;;;;;;;;;-1.30;99.90;;;;;;5110016;28;19916;-76
2022/12/18 12:59:41;;;;;;;;;;;-1.30;99.90;;;;;;5101791;28;19976;-81
2022/12/18 13:02:42;;;;;;;;;;;-1.30;99.90;;;;;;5102563;28;19912;-74
2022/12/18 13:05:17;;;;;;;;;;;-1.30;99.90;;;;;;5052840;28;20003;-73
2022/12/18 13:07:50;;;;;;;;;;;-1.30;99.90;;;;;;5053428;28;19913;-79
2022/12/18 13:10:19;;;;;;;;;;;-1.30;99.90;;;;;;5056939;28;19952;-74
2022/12/18 13:12:57;;;;;;;;;;;-1.20;99.90;;;;;;5071726;28;20280;-79
2022/12/18 13:15:31;;;;;;;;;;;-1.20;99.90;;;;;;5049655;28;19919;-71
2022/12/18 13:18:23;;;;;;;;;;;-1.20;99.90;;;;;;5071115;28;19966;-72
2022/12/18 13:20:50;;;;;;;;;;;-1.20;99.90;;;;;;5041474;28;19916;-78
2022/12/18 13:23:25;;;;;;;;;;;-1.20;99.90;;;;;;5076289;28;19966;-79
2022/12/18 13:25:52;;;;;;;;;;;-1.20;99.90;;;;;;5058879;28;19974;-71
2022/12/18 13:28:20;;;;;;;;;;;-1.20;99.90;;;;;;5051792;28;19913;-72
2022/12/18 13:30:47;;;;;;;;;;;-1.20;99.90;;;;;;5048965;28;19960;-71
2022/12/18 13:33:13;;;;;;;;;;;-1.20;99.90;;;;;;5052215;28;19955;-78
2022/12/18 13:35:39;;;;;;;;;;;-1.10;99.90;;;;;;5051625;28;19917;-78
2022/12/18 13:38:22;;;;;;;;;;;-1.10;99.90;;;;;;5068341;28;19966;-78
2022/12/18 13:40:47;;;;;;;;;;;-1.10;99.90;;;;;;5102334;28;19923;-77
2022/12/18 13:43:19;;;;;;;;;;;-1.20;99.90;;;;;;5097902;28;19931;-72
2022/12/18 13:46:04;;;;;;;;;;;-1.20;99.90;;;;;;5094988;28;19912;-72
2022/12/18 13:48:35;;;;;;;;;;;-1.20;99.90;;;;;;5077089;28;20227;-77
2022/12/18 13:51:03;;;;;;;;;;;-1.20;99.90;;;;;;5107349;28;19908;-74
2022/12/18 13:53:42;;;;;;;;;;;-1.20;99.90;;;;;;5103185;28;19958;-81
2022/12/18 13:56:07;;;;;;;;;;;-1.20;99.90;;;;;;5106205;28;19969;-72
2022/12/18 13:58:33;;;;;;;;;;;-1.10;99.90;;;;;;5107298;28;19919;-78
2022/12/18 14:00:59;;;;;;;;;;;-1.20;99.90;;;;;;5103622;28;19996;-73
2022/12/18 14:03:26;;;;;;;;;;;-1.20;99.90;;;;;;5105036;28;20271;-72
2022/12/18 14:05:53;;;;;;;;;;;-1.20;99.90;;;;;;5093419;28;19915;-78
2022/12/18 14:08:20;;;;;;;;;;;-1.10;99.90;;;;;;5104829;28;19912;-77
2022/12/18 14:10:47;;;;;;;;;;;-1.10;99.90;;;;;;5103479;28;19999;-77
2022/12/18 14:13:30;;;;;;;;;;;-1.10;99.90;;;;;;5113190;28;19923;-79
2022/12/18 14:15:56;;;;;;;;;;;-1.10;99.90;;;;;;5107753;28;19916;-78
2022/12/18 14:18:26;;;;;;;;;;;-1.00;99.90;;;;;;5104920;28;19954;-77
2022/12/18 14:20:53;;;;;;;;;;;-1.00;99.90;;;;;;5113823;28;20275;-72
2022/12/18 14:23:27;;;;;;;;;;;-1.00;99.90;;;;;;5112717;27;19913;-72
2022/12/18 14:25:53;;;;;;;;;;;-1.00;99.90;;;;;;5095211;28;20280;-76
2022/12/18 14:28:19;;;;;;;;;;;-1.00;99.90;;;;;;5109399;27;19924;-78
2022/12/18 14:30:45;;;;;;;;;;;-1.00;99.90;;;;;;5141068;27;20224;-77
2022/12/18 14:33:12;;;;;;;;;;;-1.00;99.90;;;;;;5109494;28;19954;-78
2022/12/18 14:35:42;;;;;;;;;;;-1.00;99.90;;;;;;5111757;28;19908;-78